sensor_id;sensor_type;location;lat;lon;timestamp;temperature;humidity
37702;DHT22;23548;51.196;6.838;2022-07-23T00:00:53;17.30;99.90
37702;DHT22;23548;51.196;6.838;2022-07-23T00:03:19;17.20;99.90
37702;DHT22;23548;51.196;6.838;2022-07-23T00:05:45;17.20;99.90
37702;DHT22;23548;51.196;6.838;2022-07-23T00:08:11;17.10;99.90
37702;DHT22;23548;51.196;6.838;2022-07-23T00:10:37;17.10;99.90
37702;DHT22;23548;51.196;6.838;2022-07-23T00:13:03;17.10;99.90
37702;DHT22;23548;51.196;6.838;2022-07-23T00:15:28;17.10;99.90
37702;DHT22;23548;51.196;6.838;2022-07-23T00:17:54;17.10;99.90
37702;DHT22;23548;51.196;6.838;2022-07-23T00:20:20;17.10;99.90
37702;DHT22;23548;51.196;6.838;2022-07-23T00:22:47;17.10;99.90
37702;DHT22;23548;51.196;6.838;2022-07-23T00:25:13;17.10;99.90
37702;DHT22;23548;51.196;6.838;2022-07-23T00:27:38;17.10;99.90
37702;DHT22;23548;51.196;6.838;2022-07-23T00:30:04;17.10;99.90
37702;DHT22;23548;51.196;6.838;2022-07-23T00:32:30;17.10;99.90
37702;DHT22;23548;51.196;6.838;2022-07-23T00:34:56;17.20;99.90
37702;DHT22;23548;51.196;6.838;2022-07-23T00:37:22;17.10;99.90
37702;DHT22;23548;51.196;6.838;2022-07-23T00:39:47;17.10;99.90
37702;DHT22;23548;51.196;6.838;2022-07-23T00:42:13;17.10;99.90
37702;DHT22;23548;51.196;6.838;2022-07-23T00:44:39;17.10;99.90
37702;DHT22;23548;51.196;6.838;2022-07-23T00:47:05;17.10;99.90
37702;DHT22;23548;51.196;6.838;2022-07-23T00:49:31;17.10;99.90
37702;DHT22;23548;51.196;6.838;2022-07-23T00:51:57;17.10;99.90
37702;DHT22;23548;51.196;6.838;2022-07-23T00:54:27;17.10;99.90
37702;DHT22;23548;51.196;6.838;2022-07-23T00:56:53;17.10;99.90
37702;DHT22;23548;51.196;6.838;2022-07-23T00:59:19;17.00;99.90
37702;DHT22;23548;51.196;6.838;2022-07-23T01:01:45;17.00;99.90
37702;DHT22;23548;51.196;6.838;2022-07-23T01:04:14;17.10;99.90
37702;DHT22;23548;51.196;6.838;2022-07-23T01:06:41;17.10;99.90
37702;DHT22;23548;51.196;6.838;2022-07-23T01:09:08;17.10;99.90
37702;DHT22;23548;51.196;6.838;2022-07-23T01:11:35;17.10;99.90
37702;DHT22;23548;51.196;6.838;2022-07-23T01:14:12;17.10;99.90
37702;DHT22;23548;51.196;6.838;2022-07-23T01:16:38;17.00;99.90
37702;DHT22;23548;51.196;6.838;2022-07-23T01:19:03;16.90;99.90
37702;DHT22;23548;51.196;6.838;2022-07-23T01:21:35;16.80;99.90
37702;DHT22;23548;51.196;6.838;2022-07-23T01:24:01;16.90;99.90
37702;DHT22;23548;51.196;6.838;2022-07-23T01:26:27;16.90;99.90
37702;DHT22;23548;51.196;6.838;2022-07-23T01:28:53;16.90;99.90
37702;DHT22;23548;51.196;6.838;2022-07-23T01:31:19;16.80;99.90
37702;DHT22;23548;51.196;6.838;2022-07-23T01:33:45;16.80;99.90
37702;DHT22;23548;51.196;6.838;2022-07-23T01:36:11;16.80;99.90
37702;DHT22;23548;51.196;6.838;2022-07-23T01:38:36;16.80;99.90
37702;DHT22;23548;51.196;6.838;2022-07-23T01:41:02;16.80;99.90
37702;DHT22;23548;51.196;6.838;2022-07-23T01:43:28;16.80;99.90
37702;DHT22;23548;51.196;6.838;2022-07-23T01:45:54;16.80;99.90
37702;DHT22;23548;51.196;6.838;2022-07-23T01:48:20;16.80;99.90
37702;DHT22;23548;51.196;6.838;2022-07-23T01:50:47;16.90;99.90
37702;DHT22;23548;51.196;6.838;2022-07-23T01:53:13;16.90;99.90
37702;DHT22;23548;51.196;6.838;2022-07-23T01:55:38;16.80;99.90
37702;DHT22;23548;51.196;6.838;2022-07-23T01:58:04;16.80;99.90
37702;DHT22;23548;51.196;6.838;2022-07-23T02:00:31;16.90;99.90
37702;DHT22;23548;51.196;6.838;2022-07-23T02:02:57;16.90;99.90
37702;DHT22;23548;51.196;6.838;2022-07-23T02:05:25;16.80;99.90
37702;DHT22;23548;51.196;6.838;2022-07-23T02:07:51;16.80;99.90
37702;DHT22;23548;51.196;6.838;2022-07-23T02:10:17;16.80;99.90
37702;DHT22;23548;51.196;6.838;2022-07-23T02:12:42;16.80;99.90
37702;DHT22;23548;51.196;6.838;2022-07-23T02:15:08;16.80;99.90
37702;DHT22;23548;51.196;6.838;2022-07-23T02:17:34;16.70;99.90
37702;DHT22;23548;51.196;6.838;2022-07-23T02:20:00;16.70;99.90
37702;DHT22;23548;51.196;6.838;2022-07-23T02:22:26;16.70;99.90
37702;DHT22;23548;51.196;6.838;2022-07-23T02:24:51;16.60;99.90
37702;DHT22;23548;51.196;6.838;2022-07-23T02:27:17;16.60;99.90
37702;DHT22;23548;51.196;6.838;2022-07-23T02:29:43;16.60;99.90
37702;DHT22;23548;51.196;6.838;2022-07-23T02:32:08;16.50;99.90
37702;DHT22;23548;51.196;6.838;2022-07-23T02:34:34;16.50;99.90
37702;DHT22;23548;51.196;6.838;2022-07-23T02:37:01;16.40;99.90
37702;DHT22;23548;51.196;6.838;2022-07-23T02:39:27;16.40;99.90
37702;DHT22;23548;51.196;6.838;2022-07-23T02:41:53;16.40;99.90
37702;DHT22;23548;51.196;6.838;2022-07-23T02:44:19;16.40;99.90
37702;DHT22;23548;51.196;6.838;2022-07-23T02:46:45;16.40;99.90
37702;DHT22;23548;51.196;6.838;2022-07-23T02:49:11;16.40;99.90
37702;DHT22;23548;51.196;6.838;2022-07-23T02:51:37;16.40;99.90
37702;DHT22;23548;51.196;6.838;2022-07-23T02:54:03;16.40;99.90
37702;DHT22;23548;51.196;6.838;2022-07-23T02:56:28;16.50;99.90
37702;DHT22;23548;51.196;6.838;2022-07-23T02:58:54;16.40;99.90
37702;DHT22;23548;51.196;6.838;2022-07-23T03:01:20;16.40;99.90
37702;DHT22;23548;51.196;6.838;2022-07-23T03:03:46;16.40;99.90
37702;DHT22;23548;51.196;6.838;2022-07-23T03:06:12;16.30;99.90
37702;DHT22;23548;51.196;6.838;2022-07-23T03:08:38;16.30;99.90
37702;DHT22;23548;51.196;6.838;2022-07-23T03:11:03;16.30;99.90
37702;DHT22;23548;51.196;6.838;2022-07-23T03:13:29;16.30;99.90
37702;DHT22;23548;51.196;6.838;2022-07-23T03:15:55;16.30;99.90
37702;DHT22;23548;51.196;6.838;2022-07-23T03:18:21;16.30;99.90
37702;DHT22;23548;51.196;6.838;2022-07-23T03:20:46;16.30;99.90
37702;DHT22;23548;51.196;6.838;2022-07-23T03:23:12;16.20;99.90
37702;DHT22;23548;51.196;6.838;2022-07-23T03:25:38;16.10;99.90
37702;DHT22;23548;51.196;6.838;2022-07-23T03:28:04;16.10;99.90
37702;DHT22;23548;51.196;6.838;2022-07-23T03:30:29;16.10;99.90
37702;DHT22;23548;51.196;6.838;2022-07-23T03:32:55;16.10;99.90
37702;DHT22;23548;51.196;6.838;2022-07-23T03:35:21;16.10;99.90
37702;DHT22;23548;51.196;6.838;2022-07-23T03:37:47;16.10;99.90
37702;DHT22;23548;51.196;6.838;2022-07-23T03:40:13;16.10;99.90
37702;DHT22;23548;51.196;6.838;2022-07-23T03:42:38;16.10;99.90
37702;DHT22;23548;51.196;6.838;2022-07-23T03:45:06;16.10;99.90
37702;DHT22;23548;51.196;6.838;2022-07-23T03:47:32;16.10;99.90
37702;DHT22;23548;51.196;6.838;2022-07-23T03:49:58;16.10;99.90
37702;DHT22;23548;51.196;6.838;2022-07-23T03:52:24;16.10;99.90
37702;DHT22;23548;51.196;6.838;2022-07-23T03:54:49;16.10;99.90
37702;DHT22;23548;51.196;6.838;2022-07-23T03:57:15;16.00;99.90
37702;DHT22;23548;51.196;6.838;2022-07-23T03:59:41;16.00;99.90
37702;DHT22;23548;51.196;6.838;2022-07-23T04:02:07;16.00;99.90
37702;DHT22;23548;51.196;6.838;2022-07-23T04:04:33;16.00;99.90
37702;DHT22;23548;51.196;6.838;2022-07-23T04:06:58;16.10;99.90
37702;DHT22;23548;51.196;6.838;2022-07-23T04:09:24;16.10;99.90
37702;DHT22;23548;51.196;6.838;2022-07-23T04:11:50;16.10;99.90
37702;DHT22;23548;51.196;6.838;2022-07-23T04:14:16;16.10;99.90
37702;DHT22;23548;51.196;6.838;2022-07-23T04:16:41;16.10;99.90
37702;DHT22;23548;51.196;6.838;2022-07-23T04:19:07;16.10;99.90
37702;DHT22;23548;51.196;6.838;2022-07-23T04:21:33;16.10;99.90
37702;DHT22;23548;51.196;6.838;2022-07-23T04:23:58;16.20;99.90
37702;DHT22;23548;51.196;6.838;2022-07-23T04:26:24;16.20;99.90
37702;DHT22;23548;51.196;6.838;2022-07-23T04:28:50;16.20;99.90
37702;DHT22;23548;51.196;6.838;2022-07-23T04:31:16;16.20;99.90
37702;DHT22;23548;51.196;6.838;2022-07-23T04:33:41;16.30;99.90
37702;DHT22;23548;51.196;6.838;2022-07-23T04:36:07;16.30;99.90
37702;DHT22;23548;51.196;6.838;2022-07-23T04:38:33;16.30;99.90
37702;DHT22;23548;51.196;6.838;2022-07-23T04:40:59;16.30;99.90
37702;DHT22;23548;51.196;6.838;2022-07-23T04:43:25;16.30;99.90
37702;DHT22;23548;51.196;6.838;2022-07-23T04:45:50;16.40;99.90
37702;DHT22;23548;51.196;6.838;2022-07-23T04:48:16;16.40;99.90
37702;DHT22;23548;51.196;6.838;2022-07-23T04:50:42;16.40;99.90
37702;DHT22;23548;51.196;6.838;2022-07-23T04:53:08;16.40;99.90
37702;DHT22;23548;51.196;6.838;2022-07-23T04:55:34;16.50;99.90
37702;DHT22;23548;51.196;6.838;2022-07-23T04:58:00;16.50;99.90
37702;DHT22;23548;51.196;6.838;2022-07-23T05:00:26;16.60;99.90
37702;DHT22;23548;51.196;6.838;2022-07-23T05:02:51;16.70;99.90
37702;DHT22;23548;51.196;6.838;2022-07-23T05:05:17;16.70;99.90
37702;DHT22;23548;51.196;6.838;2022-07-23T05:07:43;16.80;99.90
37702;DHT22;23548;51.196;6.838;2022-07-23T05:10:08;16.90;99.90
37702;DHT22;23548;51.196;6.838;2022-07-23T05:12:34;16.80;99.90
37702;DHT22;23548;51.196;6.838;2022-07-23T05:15:00;16.90;99.90
37702;DHT22;23548;51.196;6.838;2022-07-23T05:17:26;17.00;99.90
37702;DHT22;23548;51.196;6.838;2022-07-23T05:19:51;17.10;99.90
37702;DHT22;23548;51.196;6.838;2022-07-23T05:22:17;17.10;99.90
37702;DHT22;23548;51.196;6.838;2022-07-23T05:24:43;17.10;99.90
37702;DHT22;23548;51.196;6.838;2022-07-23T05:27:09;17.00;99.90
37702;DHT22;23548;51.196;6.838;2022-07-23T05:29:34;17.10;99.90
37702;DHT22;23548;51.196;6.838;2022-07-23T05:32:00;17.20;99.90
37702;DHT22;23548;51.196;6.838;2022-07-23T05:34:26;17.40;99.90
37702;DHT22;23548;51.196;6.838;2022-07-23T05:36:52;17.40;99.90
37702;DHT22;23548;51.196;6.838;2022-07-23T05:39:17;17.60;99.90
37702;DHT22;23548;51.196;6.838;2022-07-23T05:41:43;17.70;99.90
37702;DHT22;23548;51.196;6.838;2022-07-23T05:44:09;17.80;99.90
37702;DHT22;23548;51.196;6.838;2022-07-23T05:46:35;17.80;99.90
37702;DHT22;23548;51.196;6.838;2022-07-23T05:49:01;17.90;99.90
37702;DHT22;23548;51.196;6.838;2022-07-23T05:51:27;17.90;99.90
37702;DHT22;23548;51.196;6.838;2022-07-23T05:53:53;17.90;99.90
37702;DHT22;23548;51.196;6.838;2022-07-23T05:56:19;17.80;99.90
37702;DHT22;23548;51.196;6.838;2022-07-23T05:58:44;17.80;99.90
37702;DHT22;23548;51.196;6.838;2022-07-23T06:01:10;17.80;99.90
37702;DHT22;23548;51.196;6.838;2022-07-23T06:03:38;17.80;99.90
37702;DHT22;23548;51.196;6.838;2022-07-23T06:06:04;17.80;99.90
37702;DHT22;23548;51.196;6.838;2022-07-23T06:08:30;17.90;99.90
37702;DHT22;23548;51.196;6.838;2022-07-23T06:10:56;17.90;99.90
37702;DHT22;23548;51.196;6.838;2022-07-23T06:13:22;18.10;99.90
37702;DHT22;23548;51.196;6.838;2022-07-23T06:15:48;18.10;99.90
37702;DHT22;23548;51.196;6.838;2022-07-23T06:18:14;18.10;99.90
37702;DHT22;23548;51.196;6.838;2022-07-23T06:20:40;18.10;99.90
37702;DHT22;23548;51.196;6.838;2022-07-23T06:23:05;18.20;99.90
37702;DHT22;23548;51.196;6.838;2022-07-23T06:25:31;18.30;99.90
37702;DHT22;23548;51.196;6.838;2022-07-23T06:27:57;18.40;99.90
37702;DHT22;23548;51.196;6.838;2022-07-23T06:30:23;18.40;99.90
37702;DHT22;23548;51.196;6.838;2022-07-23T06:32:49;18.60;99.90
37702;DHT22;23548;51.196;6.838;2022-07-23T06:35:15;18.70;99.90
37702;DHT22;23548;51.196;6.838;2022-07-23T06:37:42;18.80;99.90
37702;DHT22;23548;51.196;6.838;2022-07-23T06:40:08;18.80;99.90
37702;DHT22;23548;51.196;6.838;2022-07-23T06:42:34;18.80;99.90
37702;DHT22;23548;51.196;6.838;2022-07-23T06:45:06;18.90;99.90
37702;DHT22;23548;51.196;6.838;2022-07-23T06:47:32;19.00;99.90
37702;DHT22;23548;51.196;6.838;2022-07-23T06:49:58;19.10;99.90
37702;DHT22;23548;51.196;6.838;2022-07-23T06:52:24;19.30;99.90
37702;DHT22;23548;51.196;6.838;2022-07-23T06:54:51;19.20;99.90
37702;DHT22;23548;51.196;6.838;2022-07-23T06:57:17;19.20;99.90
37702;DHT22;23548;51.196;6.838;2022-07-23T06:59:43;19.10;99.90
37702;DHT22;23548;51.196;6.838;2022-07-23T07:02:09;19.20;99.90
37702;DHT22;23548;51.196;6.838;2022-07-23T07:04:35;19.30;99.90
37702;DHT22;23548;51.196;6.838;2022-07-23T07:07:00;19.40;99.90
37702;DHT22;23548;51.196;6.838;2022-07-23T07:09:26;19.60;99.90
37702;DHT22;23548;51.196;6.838;2022-07-23T07:11:52;19.60;99.90
37702;DHT22;23548;51.196;6.838;2022-07-23T07:14:18;19.70;99.90
37702;DHT22;23548;51.196;6.838;2022-07-23T07:16:44;19.90;99.90
37702;DHT22;23548;51.196;6.838;2022-07-23T07:19:09;20.00;99.90
37702;DHT22;23548;51.196;6.838;2022-07-23T07:21:35;20.20;99.90
37702;DHT22;23548;51.196;6.838;2022-07-23T07:24:01;20.30;99.90
37702;DHT22;23548;51.196;6.838;2022-07-23T07:26:27;20.50;99.90
37702;DHT22;23548;51.196;6.838;2022-07-23T07:28:52;20.50;99.90
37702;DHT22;23548;51.196;6.838;2022-07-23T07:31:18;20.70;99.90
37702;DHT22;23548;51.196;6.838;2022-07-23T07:33:44;20.70;99.90
37702;DHT22;23548;51.196;6.838;2022-07-23T07:36:10;20.50;99.90
37702;DHT22;23548;51.196;6.838;2022-07-23T07:38:35;20.30;99.90
37702;DHT22;23548;51.196;6.838;2022-07-23T07:41:02;20.10;99.90
37702;DHT22;23548;51.196;6.838;2022-07-23T07:43:27;20.20;99.90
37702;DHT22;23548;51.196;6.838;2022-07-23T07:45:53;20.40;99.90
37702;DHT22;23548;51.196;6.838;2022-07-23T07:48:19;20.60;99.90
37702;DHT22;23548;51.196;6.838;2022-07-23T07:50:44;20.70;99.90
37702;DHT22;23548;51.196;6.838;2022-07-23T07:53:10;20.60;99.90
37702;DHT22;23548;51.196;6.838;2022-07-23T07:55:36;20.50;99.90
37702;DHT22;23548;51.196;6.838;2022-07-23T07:58:02;20.70;99.90
37702;DHT22;23548;51.196;6.838;2022-07-23T08:00:28;20.80;99.90
37702;DHT22;23548;51.196;6.838;2022-07-23T08:02:54;21.20;99.90
37702;DHT22;23548;51.196;6.838;2022-07-23T08:05:25;21.50;99.90
37702;DHT22;23548;51.196;6.838;2022-07-23T08:07:52;21.90;99.90
37702;DHT22;23548;51.196;6.838;2022-07-23T08:10:18;22.20;99.90
37702;DHT22;23548;51.196;6.838;2022-07-23T08:12:47;22.00;99.90
37702;DHT22;23548;51.196;6.838;2022-07-23T08:15:15;22.00;99.90
37702;DHT22;23548;51.196;6.838;2022-07-23T08:17:42;21.80;99.90
37702;DHT22;23548;51.196;6.838;2022-07-23T08:20:09;21.90;99.90
37702;DHT22;23548;51.196;6.838;2022-07-23T08:22:50;21.80;99.90
37702;DHT22;23548;51.196;6.838;2022-07-23T08:25:20;21.90;99.90
37702;DHT22;23548;51.196;6.838;2022-07-23T08:27:46;21.80;99.90
37702;DHT22;23548;51.196;6.838;2022-07-23T08:30:13;21.70;99.90
37702;DHT22;23548;51.196;6.838;2022-07-23T08:32:56;21.60;99.90
37702;DHT22;23548;51.196;6.838;2022-07-23T08:35:28;21.60;99.90
37702;DHT22;23548;51.196;6.838;2022-07-23T08:37:55;22.00;99.90
37702;DHT22;23548;51.196;6.838;2022-07-23T08:40:22;22.00;99.90
37702;DHT22;23548;51.196;6.838;2022-07-23T08:42:50;22.10;99.90
37702;DHT22;23548;51.196;6.838;2022-07-23T08:45:18;21.90;99.90
37702;DHT22;23548;51.196;6.838;2022-07-23T08:47:45;22.10;99.90
37702;DHT22;23548;51.196;6.838;2022-07-23T08:50:12;22.00;99.90
37702;DHT22;23548;51.196;6.838;2022-07-23T08:52:40;22.30;99.90
37702;DHT22;23548;51.196;6.838;2022-07-23T08:55:06;22.30;99.90
37702;DHT22;23548;51.196;6.838;2022-07-23T08:57:32;22.30;99.90
37702;DHT22;23548;51.196;6.838;2022-07-23T08:59:58;22.30;99.90
37702;DHT22;23548;51.196;6.838;2022-07-23T09:02:24;22.10;99.90
37702;DHT22;23548;51.196;6.838;2022-07-23T09:04:49;22.30;99.90
37702;DHT22;23548;51.196;6.838;2022-07-23T09:07:15;22.10;99.90
37702;DHT22;23548;51.196;6.838;2022-07-23T09:09:41;21.90;99.90
37702;DHT22;23548;51.196;6.838;2022-07-23T09:12:10;22.10;99.90
37702;DHT22;23548;51.196;6.838;2022-07-23T09:14:45;22.20;99.90
37702;DHT22;23548;51.196;6.838;2022-07-23T09:17:17;22.10;99.90
37702;DHT22;23548;51.196;6.838;2022-07-23T09:19:44;22.00;99.90
37702;DHT22;23548;51.196;6.838;2022-07-23T09:22:22;22.30;99.90
37702;DHT22;23548;51.196;6.838;2022-07-23T09:25:09;22.30;99.90
37702;DHT22;23548;51.196;6.838;2022-07-23T09:27:55;22.10;99.90
37702;DHT22;23548;51.196;6.838;2022-07-23T09:30:26;22.40;99.90
37702;DHT22;23548;51.196;6.838;2022-07-23T09:33:06;22.40;99.90
37702;DHT22;23548;51.196;6.838;2022-07-23T09:38:14;22.20;99.90
37702;DHT22;23548;51.196;6.838;2022-07-23T09:40:40;22.40;99.90
37702;DHT22;23548;51.196;6.838;2022-07-23T09:43:05;22.30;99.90
37702;DHT22;23548;51.196;6.838;2022-07-23T09:45:31;22.60;99.90
37702;DHT22;23548;51.196;6.838;2022-07-23T09:48:17;22.40;99.90
37702;DHT22;23548;51.196;6.838;2022-07-23T09:50:44;22.40;99.90
37702;DHT22;23548;51.196;6.838;2022-07-23T09:53:25;22.60;99.90
37702;DHT22;23548;51.196;6.838;2022-07-23T09:55:54;22.80;99.90
37702;DHT22;23548;51.196;6.838;2022-07-23T09:58:22;22.50;99.90
37702;DHT22;23548;51.196;6.838;2022-07-23T10:00:49;22.60;99.90
37702;DHT22;23548;51.196;6.838;2022-07-23T10:03:16;22.60;99.90
37702;DHT22;23548;51.196;6.838;2022-07-23T10:05:43;22.60;99.90
37702;DHT22;23548;51.196;6.838;2022-07-23T10:08:11;22.70;99.90
37702;DHT22;23548;51.196;6.838;2022-07-23T10:10:41;22.70;99.90
37702;DHT22;23548;51.196;6.838;2022-07-23T10:13:07;22.90;99.90
37702;DHT22;23548;51.196;6.838;2022-07-23T10:15:41;23.00;99.90
37702;DHT22;23548;51.196;6.838;2022-07-23T10:18:10;22.60;99.90
37702;DHT22;23548;51.196;6.838;2022-07-23T10:20:36;22.80;99.90
37702;DHT22;23548;51.196;6.838;2022-07-23T10:23:51;23.20;99.90
37702;DHT22;23548;51.196;6.838;2022-07-23T10:31:41;23.20;99.90
37702;DHT22;23548;51.196;6.838;2022-07-23T10:37:05;23.90;99.90
37702;DHT22;23548;51.196;6.838;2022-07-23T10:39:34;23.60;99.90
37702;DHT22;23548;51.196;6.838;2022-07-23T10:42:14;23.40;99.90
37702;DHT22;23548;51.196;6.838;2022-07-23T10:47:07;23.60;99.90
37702;DHT22;23548;51.196;6.838;2022-07-23T10:49:42;23.70;99.90
37702;DHT22;23548;51.196;6.838;2022-07-23T10:57:07;24.30;99.90
37702;DHT22;23548;51.196;6.838;2022-07-23T11:02:31;24.40;99.90
37702;DHT22;23548;51.196;6.838;2022-07-23T11:07:31;24.50;99.90
37702;DHT22;23548;51.196;6.838;2022-07-23T11:09:57;24.20;99.90
37702;DHT22;23548;51.196;6.838;2022-07-23T11:14:58;24.60;99.90
37702;DHT22;23548;51.196;6.838;2022-07-23T11:17:25;25.10;99.40
37702;DHT22;23548;51.196;6.838;2022-07-23T11:22:40;25.40;98.60
37702;DHT22;23548;51.196;6.838;2022-07-23T11:25:13;24.50;98.90
37702;DHT22;23548;51.196;6.838;2022-07-23T11:27:44;25.00;97.40
37702;DHT22;23548;51.196;6.838;2022-07-23T11:35:36;24.60;97.80
37702;DHT22;23548;51.196;6.838;2022-07-23T11:38:07;24.90;97.60
37702;DHT22;23548;51.196;6.838;2022-07-23T11:40:36;24.80;97.90
37702;DHT22;23548;51.196;6.838;2022-07-23T11:43:07;24.90;96.90
37702;DHT22;23548;51.196;6.838;2022-07-23T11:45:42;24.90;96.10
37702;DHT22;23548;51.196;6.838;2022-07-23T11:48:15;24.60;96.10
37702;DHT22;23548;51.196;6.838;2022-07-23T11:50:41;24.60;96.10
37702;DHT22;23548;51.196;6.838;2022-07-23T11:53:07;24.80;95.90
37702;DHT22;23548;51.196;6.838;2022-07-23T11:55:32;24.80;95.80
37702;DHT22;23548;51.196;6.838;2022-07-23T11:57:58;25.00;95.00
37702;DHT22;23548;51.196;6.838;2022-07-23T12:00:26;25.10;94.70
37702;DHT22;23548;51.196;6.838;2022-07-23T12:02:57;25.20;94.30
37702;DHT22;23548;51.196;6.838;2022-07-23T12:05:36;25.40;94.20
37702;DHT22;23548;51.196;6.838;2022-07-23T12:08:09;25.60;94.30
37702;DHT22;23548;51.196;6.838;2022-07-23T12:10:38;25.70;93.70
37702;DHT22;23548;51.196;6.838;2022-07-23T12:15:47;25.60;93.40
37702;DHT22;23548;51.196;6.838;2022-07-23T12:18:16;25.20;92.60
37702;DHT22;23548;51.196;6.838;2022-07-23T12:20:48;25.10;92.50
37702;DHT22;23548;51.196;6.838;2022-07-23T12:23:15;25.00;92.70
37702;DHT22;23548;51.196;6.838;2022-07-23T12:25:43;25.10;92.30
37702;DHT22;23548;51.196;6.838;2022-07-23T12:28:14;25.30;91.30
37702;DHT22;23548;51.196;6.838;2022-07-23T12:33:18;25.20;90.50
37702;DHT22;23548;51.196;6.838;2022-07-23T12:35:47;25.20;90.70
37702;DHT22;23548;51.196;6.838;2022-07-23T12:38:24;25.30;91.10
37702;DHT22;23548;51.196;6.838;2022-07-23T12:40:50;25.50;90.00
37702;DHT22;23548;51.196;6.838;2022-07-23T12:43:28;25.50;88.40
37702;DHT22;23548;51.196;6.838;2022-07-23T12:48:26;25.80;90.10
37702;DHT22;23548;51.196;6.838;2022-07-23T12:51:28;25.90;89.20
37702;DHT22;23548;51.196;6.838;2022-07-23T12:54:04;26.10;87.60
37702;DHT22;23548;51.196;6.838;2022-07-23T12:56:34;26.10;86.10
37702;DHT22;23548;51.196;6.838;2022-07-23T13:01:35;26.00;86.30
37702;DHT22;23548;51.196;6.838;2022-07-23T13:04:07;26.20;87.40
37702;DHT22;23548;51.196;6.838;2022-07-23T13:09:11;26.40;87.50
37702;DHT22;23548;51.196;6.838;2022-07-23T13:11:38;26.80;85.40
37702;DHT22;23548;51.196;6.838;2022-07-23T13:14:05;26.90;83.20
37702;DHT22;23548;51.196;6.838;2022-07-23T13:16:32;27.00;82.30
37702;DHT22;23548;51.196;6.838;2022-07-23T13:18:58;27.10;83.40
37702;DHT22;23548;51.196;6.838;2022-07-23T13:21:26;27.20;82.80
37702;DHT22;23548;51.196;6.838;2022-07-23T13:23:52;27.40;83.40
37702;DHT22;23548;51.196;6.838;2022-07-23T13:26:18;27.20;83.40
37702;DHT22;23548;51.196;6.838;2022-07-23T13:28:44;27.30;83.30
37702;DHT22;23548;51.196;6.838;2022-07-23T13:31:10;27.10;83.10
37702;DHT22;23548;51.196;6.838;2022-07-23T13:33:36;27.60;83.20
37702;DHT22;23548;51.196;6.838;2022-07-23T13:36:02;27.70;81.10
37702;DHT22;23548;51.196;6.838;2022-07-23T13:38:29;28.50;80.10
37702;DHT22;23548;51.196;6.838;2022-07-23T13:40:55;30.80;75.20
37702;DHT22;23548;51.196;6.838;2022-07-23T13:43:23;32.50;68.00
37702;DHT22;23548;51.196;6.838;2022-07-23T13:45:49;32.90;64.90
37702;DHT22;23548;51.196;6.838;2022-07-23T13:48:16;32.40;65.00
37702;DHT22;23548;51.196;6.838;2022-07-23T13:50:43;32.50;64.90
37702;DHT22;23548;51.196;6.838;2022-07-23T13:53:12;33.00;61.70
37702;DHT22;23548;51.196;6.838;2022-07-23T13:55:39;33.90;59.00
37702;DHT22;23548;51.196;6.838;2022-07-23T13:58:05;33.50;58.70
37702;DHT22;23548;51.196;6.838;2022-07-23T14:00:33;33.00;58.20
37702;DHT22;23548;51.196;6.838;2022-07-23T14:02:59;33.10;58.10
37702;DHT22;23548;51.196;6.838;2022-07-23T14:05:26;35.00;55.00
37702;DHT22;23548;51.196;6.838;2022-07-23T14:07:52;33.70;55.60
37702;DHT22;23548;51.196;6.838;2022-07-23T14:10:20;35.10;53.00
37702;DHT22;23548;51.196;6.838;2022-07-23T14:12:48;34.90;51.20
37702;DHT22;23548;51.196;6.838;2022-07-23T14:15:14;34.80;51.90
37702;DHT22;23548;51.196;6.838;2022-07-23T14:17:42;35.60;50.30
37702;DHT22;23548;51.196;6.838;2022-07-23T14:20:09;34.00;51.80
37702;DHT22;23548;51.196;6.838;2022-07-23T14:22:38;32.70;53.80
37702;DHT22;23548;51.196;6.838;2022-07-23T14:25:05;33.60;52.60
37702;DHT22;23548;51.196;6.838;2022-07-23T14:27:31;35.00;50.40
37702;DHT22;23548;51.196;6.838;2022-07-23T14:29:57;34.10;49.90
37702;DHT22;23548;51.196;6.838;2022-07-23T14:32:23;34.60;50.50
37702;DHT22;23548;51.196;6.838;2022-07-23T14:34:50;34.70;50.90
37702;DHT22;23548;51.196;6.838;2022-07-23T14:37:16;35.20;50.40
37702;DHT22;23548;51.196;6.838;2022-07-23T14:39:42;35.50;50.20
37702;DHT22;23548;51.196;6.838;2022-07-23T14:42:09;35.60;48.90
37702;DHT22;23548;51.196;6.838;2022-07-23T14:44:35;36.10;48.60
37702;DHT22;23548;51.196;6.838;2022-07-23T14:47:02;36.40;47.90
37702;DHT22;23548;51.196;6.838;2022-07-23T14:49:33;36.90;48.40
37702;DHT22;23548;51.196;6.838;2022-07-23T14:51:59;34.60;50.10
37702;DHT22;23548;51.196;6.838;2022-07-23T14:54:26;33.50;50.00
37702;DHT22;23548;51.196;6.838;2022-07-23T14:56:54;34.30;49.60
37702;DHT22;23548;51.196;6.838;2022-07-23T14:59:19;35.60;47.80
37702;DHT22;23548;51.196;6.838;2022-07-23T15:01:45;36.80;47.40
37702;DHT22;23548;51.196;6.838;2022-07-23T15:04:11;37.10;46.30
37702;DHT22;23548;51.196;6.838;2022-07-23T15:06:37;36.00;47.40
37702;DHT22;23548;51.196;6.838;2022-07-23T15:09:05;38.50;45.00
37702;DHT22;23548;51.196;6.838;2022-07-23T15:11:31;38.10;44.80
37702;DHT22;23548;51.196;6.838;2022-07-23T15:14:03;38.80;43.10
37702;DHT22;23548;51.196;6.838;2022-07-23T15:16:29;39.20;42.40
37702;DHT22;23548;51.196;6.838;2022-07-23T15:18:54;38.30;42.50
37702;DHT22;23548;51.196;6.838;2022-07-23T15:21:21;35.90;44.60
37702;DHT22;23548;51.196;6.838;2022-07-23T15:23:47;34.20;48.20
37702;DHT22;23548;51.196;6.838;2022-07-23T15:26:13;32.50;49.40
37702;DHT22;23548;51.196;6.838;2022-07-23T15:28:40;33.90;48.90
37702;DHT22;23548;51.196;6.838;2022-07-23T15:31:07;33.90;48.40
37702;DHT22;23548;51.196;6.838;2022-07-23T15:33:33;35.00;46.80
37702;DHT22;23548;51.196;6.838;2022-07-23T15:35:59;35.70;45.60
37702;DHT22;23548;51.196;6.838;2022-07-23T15:38:26;35.50;45.20
37702;DHT22;23548;51.196;6.838;2022-07-23T15:40:56;35.50;46.40
37702;DHT22;23548;51.196;6.838;2022-07-23T15:43:23;35.70;46.00
37702;DHT22;23548;51.196;6.838;2022-07-23T15:45:49;36.60;45.10
37702;DHT22;23548;51.196;6.838;2022-07-23T15:48:15;37.30;43.80
37702;DHT22;23548;51.196;6.838;2022-07-23T15:50:41;36.50;44.00
37702;DHT22;23548;51.196;6.838;2022-07-23T15:53:07;33.90;46.20
37702;DHT22;23548;51.196;6.838;2022-07-23T15:55:33;33.40;48.30
37702;DHT22;23548;51.196;6.838;2022-07-23T15:57:59;34.30;47.10
37702;DHT22;23548;51.196;6.838;2022-07-23T16:00:25;34.70;46.20
37702;DHT22;23548;51.196;6.838;2022-07-23T16:02:51;34.60;46.40
37702;DHT22;23548;51.196;6.838;2022-07-23T16:05:17;34.80;46.20
37702;DHT22;23548;51.196;6.838;2022-07-23T16:08:02;35.60;45.20
37702;DHT22;23548;51.196;6.838;2022-07-23T16:10:28;34.70;45.40
37702;DHT22;23548;51.196;6.838;2022-07-23T16:12:54;35.50;45.70
37702;DHT22;23548;51.196;6.838;2022-07-23T16:15:21;35.50;45.50
37702;DHT22;23548;51.196;6.838;2022-07-23T16:17:47;34.90;45.60